createdAt,value
2018-09-25T00:03:40.676Z,5.36
2018-09-25T00:09:04.416Z,5.32
2018-09-25T00:14:28.143Z,5.37
2018-09-25T00:19:52.044Z,5.35
2018-09-25T00:25:16.723Z,5.25
2018-09-25T00:30:40.551Z,5.23
2018-09-25T00:36:04.377Z,5.13
2018-09-25T00:41:27.955Z,5.15
2018-09-25T00:46:51.779Z,5.18
2018-09-25T00:52:15.542Z,5.00
2018-09-25T00:57:39.181Z,5.01
2018-09-25T01:03:02.969Z,5.02
2018-09-25T01:08:26.791Z,4.96
2018-09-25T01:13:50.561Z,4.95
2018-09-25T01:19:14.346Z,4.87
2018-09-25T01:24:38.198Z,4.96
2018-09-25T01:30:01.883Z,4.89
2018-09-25T01:35:25.854Z,4.89
2018-09-25T01:40:49.599Z,4.77
2018-09-25T01:46:13.450Z,4.75
2018-09-25T01:51:37.248Z,4.72
2018-09-25T01:57:01.109Z,4.63
2018-09-25T02:02:24.820Z,4.53
2018-09-25T02:07:48.570Z,4.51
2018-09-25T02:13:12.266Z,4.51
2018-09-25T02:18:36.102Z,4.51
2018-09-25T02:24:00.048Z,4.54
2018-09-25T02:29:23.822Z,4.45
2018-09-25T02:34:47.583Z,4.37
2018-09-25T02:40:11.585Z,4.41
2018-09-25T02:45:35.436Z,4.38
2018-09-25T02:50:59.102Z,4.41
2018-09-25T02:56:22.888Z,4.33
2018-09-25T03:01:46.721Z,4.31
2018-09-25T03:07:10.605Z,4.32
2018-09-25T03:12:34.304Z,4.23
2018-09-25T03:17:58.037Z,4.09
2018-09-25T03:23:21.742Z,4.10
2018-09-25T03:28:45.684Z,4.07
2018-09-25T03:34:09.523Z,4.12
2018-09-25T03:39:33.395Z,4.17
2018-09-25T03:44:57.141Z,3.99
2018-09-25T03:50:21.020Z,4.00
2018-09-25T03:55:44.980Z,3.93
2018-09-25T04:01:09.166Z,3.90
2018-09-25T04:06:33.272Z,3.84
2018-09-25T04:11:57.284Z,3.90
2018-09-25T04:17:21.253Z,3.79
2018-09-25T04:22:45.232Z,3.71
2018-09-25T04:28:09.033Z,3.71
2018-09-25T04:33:33.131Z,3.67
2018-09-25T04:38:57.106Z,3.64
2018-09-25T04:44:21.093Z,3.60
2018-09-25T04:49:45.878Z,3.56
2018-09-25T04:55:10.023Z,3.60
2018-09-25T05:00:36.559Z,3.64
2018-09-25T05:06:00.526Z,3.57
2018-09-25T05:11:24.470Z,3.64
2018-09-25T05:16:48.418Z,3.65
2018-09-25T05:22:12.254Z,3.70
2018-09-25T05:27:35.904Z,3.66
2018-09-25T05:32:59.746Z,3.69
2018-09-25T05:38:23.922Z,3.68
2018-09-25T05:43:49.319Z,3.89
2018-09-25T05:49:13.412Z,3.94
2018-09-25T05:54:37.419Z,4.02
2018-09-25T06:00:01.402Z,3.93
2018-09-25T06:05:25.368Z,3.96
2018-09-25T06:10:49.172Z,4.05
2018-09-25T06:16:13.292Z,4.26
2018-09-25T06:21:36.973Z,4.40
2018-09-25T06:27:08.552Z,4.50
2018-09-25T06:32:32.443Z,4.53
2018-09-25T06:37:56.311Z,4.70
2018-09-25T06:43:20.085Z,4.81
2018-09-25T06:48:43.791Z,4.91
2018-09-25T06:54:07.725Z,5.17
2018-09-25T06:59:31.672Z,5.15
2018-09-25T07:04:55.459Z,5.27
2018-09-25T07:10:19.353Z,5.45
2018-09-25T07:15:43.052Z,5.67
2018-09-25T07:21:06.836Z,5.81
2018-09-25T07:26:30.874Z,6.03
2018-09-25T07:31:54.912Z,6.22
2018-09-25T07:37:18.778Z,6.40
2018-09-25T07:42:42.602Z,6.65
2018-09-25T07:48:06.337Z,6.96
2018-09-25T07:53:30.105Z,7.27
2018-09-25T07:58:54.080Z,7.58
2018-09-25T08:04:17.727Z,7.82
2018-09-25T08:09:41.620Z,8.08
2018-09-25T08:15:05.642Z,8.32
2018-09-25T08:20:29.569Z,8.58
2018-09-25T08:25:53.566Z,8.84
2018-09-25T08:31:17.402Z,8.98
2018-09-25T08:36:41.365Z,9.20
2018-09-25T08:42:05.183Z,9.48
2018-09-25T08:47:29.332Z,9.66
2018-09-25T08:52:53.398Z,9.84
2018-09-25T08:58:17.691Z,10.01
2018-09-25T09:03:41.878Z,10.15
2018-09-25T09:09:05.753Z,10.22
2018-09-25T09:14:29.859Z,10.40
2018-09-25T09:19:53.851Z,10.51
2018-09-25T09:25:17.731Z,10.77
2018-09-25T09:30:41.714Z,11.07
2018-09-25T09:36:05.718Z,11.22
2018-09-25T09:41:29.602Z,11.42
2018-09-25T09:46:53.459Z,11.50
2018-09-25T09:52:17.255Z,11.91
2018-09-25T09:57:41.059Z,12.25
2018-09-25T10:03:05.051Z,12.38
2018-09-25T10:08:29.727Z,12.52
2018-09-25T10:13:53.674Z,12.77
2018-09-25T10:19:17.475Z,12.83
2018-09-25T10:24:41.510Z,12.84
2018-09-25T10:30:05.565Z,12.48
2018-09-25T10:35:29.390Z,12.26
2018-09-25T10:40:53.393Z,12.14
2018-09-25T10:46:17.146Z,12.06
2018-09-25T10:51:41.149Z,12.00
2018-09-25T10:57:04.895Z,11.96
2018-09-25T11:02:28.660Z,11.85
2018-09-25T11:07:52.524Z,11.88
2018-09-25T11:13:16.393Z,11.78
2018-09-25T11:18:40.243Z,11.89
2018-09-25T11:24:04.314Z,12.18
2018-09-25T11:29:28.159Z,12.62
2018-09-25T11:34:51.983Z,12.95
2018-09-25T11:40:15.785Z,13.47
2018-09-25T11:45:39.494Z,13.51
2018-09-25T11:51:03.385Z,13.58
2018-09-25T11:56:27.273Z,13.92
2018-09-25T12:01:51.048Z,14.27
2018-09-25T12:07:14.901Z,14.11
2018-09-25T12:12:38.703Z,14.05
2018-09-25T12:18:02.374Z,13.85
2018-09-25T12:23:26.178Z,13.85
2018-09-25T12:28:49.894Z,13.60
2018-09-25T12:34:13.590Z,13.48
2018-09-25T12:39:37.448Z,13.08
2018-09-25T12:45:01.240Z,12.74
2018-09-25T12:50:25.212Z,12.74
2018-09-25T12:55:48.901Z,12.80
2018-09-25T13:01:12.859Z,12.92
2018-09-25T13:06:36.576Z,13.04
2018-09-25T13:12:00.440Z,12.95
2018-09-25T13:17:24.187Z,12.94
2018-09-25T13:22:48.027Z,13.03
2018-09-25T13:28:11.781Z,13.29
2018-09-25T13:33:35.557Z,13.65
2018-09-25T13:38:59.287Z,13.67
2018-09-25T13:44:23.144Z,13.93
2018-09-25T13:49:46.772Z,13.97
2018-09-25T13:55:11.182Z,13.93
2018-09-25T14:00:34.856Z,13.84
2018-09-25T14:05:58.677Z,13.72
2018-09-25T14:11:22.511Z,13.87
2018-09-25T14:16:46.384Z,13.81
2018-09-25T14:22:10.176Z,13.76
2018-09-25T14:27:33.988Z,13.68
2018-09-25T14:32:57.926Z,13.70
2018-09-25T14:38:21.674Z,13.83
2018-09-25T14:43:45.412Z,13.88
2018-09-25T14:49:09.296Z,13.90
2018-09-25T14:54:33.135Z,14.18
2018-09-25T14:59:56.844Z,14.11
2018-09-25T15:05:20.578Z,14.09
2018-09-25T15:10:44.424Z,14.16
2018-09-25T15:16:08.157Z,14.02
2018-09-25T15:21:32.058Z,13.93
2018-09-25T15:26:55.783Z,13.76
2018-09-25T15:32:19.578Z,13.67
2018-09-25T15:37:43.306Z,13.64
2018-09-25T15:43:07.068Z,13.70
2018-09-25T15:48:30.935Z,13.39
2018-09-25T15:53:54.613Z,13.06
2018-09-25T15:59:18.419Z,12.94
2018-09-25T16:04:42.161Z,12.82
2018-09-25T16:10:05.837Z,12.83
2018-09-25T16:15:29.633Z,12.79
2018-09-25T16:20:53.371Z,12.73
2018-09-25T16:26:17.068Z,12.37
2018-09-25T16:31:40.791Z,12.39
2018-09-25T16:37:04.692Z,12.24
2018-09-25T16:42:28.408Z,12.09
2018-09-25T16:47:52.279Z,11.81
2018-09-25T16:53:15.972Z,11.72
2018-09-25T16:58:39.835Z,11.51
2018-09-25T17:04:03.660Z,11.30
2018-09-25T17:09:27.247Z,11.15
2018-09-25T17:14:50.936Z,10.75
2018-09-25T17:20:14.780Z,10.50
2018-09-25T17:25:38.646Z,10.22
2018-09-25T17:31:02.383Z,10.04
2018-09-25T17:36:26.116Z,9.69
2018-09-25T17:41:49.927Z,9.55
2018-09-25T17:47:13.618Z,9.52
2018-09-25T17:52:37.384Z,9.47
2018-09-25T17:58:01.226Z,9.15
2018-09-25T18:03:25.026Z,8.91
2018-09-25T18:08:48.967Z,8.96
2018-09-25T18:14:13.055Z,9.00
2018-09-25T18:19:36.812Z,8.80
2018-09-25T18:25:00.487Z,8.77
2018-09-25T18:30:24.240Z,8.80
2018-09-25T18:35:48.012Z,8.54
2018-09-25T18:41:11.773Z,8.50
2018-09-25T18:46:35.596Z,8.25
2018-09-25T18:51:59.449Z,8.25
2018-09-25T18:57:23.498Z,7.86
2018-09-25T19:02:47.183Z,7.91
2018-09-25T19:08:10.778Z,7.92
2018-09-25T19:13:34.436Z,7.74
2018-09-25T19:18:58.313Z,7.46
2018-09-25T19:24:21.948Z,7.48
2018-09-25T19:29:45.669Z,7.48
2018-09-25T19:35:09.615Z,7.47
2018-09-25T19:40:33.692Z,7.36
2018-09-25T19:45:57.542Z,7.35
2018-09-25T19:51:21.197Z,7.25
2018-09-25T19:56:45.052Z,6.79
2018-09-25T20:02:08.763Z,6.98
2018-09-25T20:07:32.537Z,6.92
2018-09-25T20:12:56.580Z,6.90
2018-09-25T20:18:20.249Z,6.83
2018-09-25T20:23:43.973Z,6.84
2018-09-25T20:29:07.825Z,6.88
2018-09-25T20:34:31.711Z,6.80
2018-09-25T20:39:56.499Z,6.42
2018-09-25T20:45:20.183Z,6.53
2018-09-25T20:50:44.310Z,6.57
2018-09-25T20:56:08.017Z,6.58
2018-09-25T21:01:31.873Z,6.60
2018-09-25T21:06:55.671Z,6.51
2018-09-25T21:12:19.304Z,6.36
2018-09-25T21:17:43.133Z,6.33
2018-09-25T21:23:08.740Z,6.22
2018-09-25T21:28:32.657Z,6.23
2018-09-25T21:33:56.315Z,6.13
2018-09-25T21:39:19.915Z,6.11
2018-09-25T21:44:43.607Z,6.12
2018-09-25T21:50:07.437Z,6.09
2018-09-25T21:55:31.081Z,6.03
2018-09-25T22:00:54.800Z,6.02
2018-09-25T22:06:18.655Z,6.00
2018-09-25T22:11:42.485Z,5.82
2018-09-25T22:17:06.298Z,5.95
2018-09-25T22:22:29.944Z,5.66
2018-09-25T22:27:53.644Z,5.68
2018-09-25T22:33:17.275Z,5.70
2018-09-25T22:38:41.063Z,5.63
2018-09-25T22:44:04.909Z,5.73
2018-09-25T22:49:28.745Z,5.75
2018-09-25T22:54:52.654Z,5.81
2018-09-25T23:00:16.285Z,5.76
2018-09-25T23:05:40.039Z,5.70
2018-09-25T23:11:03.722Z,5.61
2018-09-25T23:16:27.390Z,5.56
2018-09-25T23:21:51.105Z,5.56
2018-09-25T23:27:14.820Z,5.54
2018-09-25T23:32:38.709Z,5.55
2018-09-25T23:38:02.574Z,5.42
2018-09-25T23:43:34.307Z,5.40
2018-09-25T23:48:57.986Z,5.36
2018-09-25T23:54:25.202Z,5.28
2018-09-25T23:59:55.808Z,5.30
